• Join FlightAware (Why Join?)
  • Login
  • US Flag 
09:44PM EDT


 

Airport Tracker/Info


-or-


 

Live Flight TrackerFlight Track Log ✈ CNS22 ✈ 14-May-2013 ✈ KATL - KRDU

Flight Track Log - Related Links

Times and Time Zones

All times are in EDT time to prevent confusion due to time zone crossing. See the CNS22 flight status page for this flight to view local times or setup timezone preferences in your user account.

Time Position Orientation Groundspeed Altitude Reporting Facility
EDT Latitude Longitude Course Direction KTS MPH feet Rate Location/Type
12:15PM 33.9214 -84.2367 63° Northeast 157 181 13,500  Level Atlanta Center
12:16PM 33.9425 -84.1842 64° Northeast 165 190 14,200 720 Climbing Atlanta Center
12:17PM 33.9675 -84.1189 65° Northeast 202 232 15,000 780 Climbing Atlanta Center
12:18PM 33.9947 -84.0489 65° Northeast 219 252 15,800 780 Climbing Atlanta Center
12:19PM 34.0217 -83.9786 65° Northeast 224 258 16,600 780 Climbing Atlanta Center
12:20PM 33.8955 -83.8227 63° Northeast  Level Estimated
12:20PM 34.0489 -83.9083 65° Northeast 224 258 17,400  Level Atlanta Center
12:21PM 34.0781 -83.8381 63° Northeast 230 265 17,500  Climbing Atlanta Center
12:22PM 34.1069 -83.7578 66° East 246 283 17,500  Level Atlanta Center
12:23PM 34.1422 -83.6697 64° Northeast 251 289 17,500  Level Atlanta Center
12:24PM 34.1711 -83.5919 66° East 259 298 17,500  Level Atlanta Center
12:25PM 34.2022 -83.5089 66° East 259 298 17,500  Level Atlanta Center
12:26PM 34.2331 -83.4283 65° Northeast 259 298 17,500  Level Atlanta Center
12:27PM 34.2639 -83.3475 65° Northeast 259 298 17,500  Level Atlanta Center
12:28PM 34.2947 -83.2669 65° Northeast 254 292 17,500  Level Atlanta Center
12:29PM 34.3256 -83.1861 65° Northeast 254 292 17,500  Level Atlanta Center
12:30PM 34.3583 -83.1028 65° Northeast 254 292 17,500  Level Atlanta Center
12:31PM 34.3850 -83.0244 68° East 254 292 17,500  Level Atlanta Center
12:32PM 34.4156 -82.9536 62° Northeast 254 292 17,500  Level Atlanta Center
12:33PM 34.4442 -82.8725 67° East 259 298 17,500  Level Atlanta Center
12:34PM 34.4786 -82.7914 63° Northeast 259 298 17,500  Level Atlanta Center
12:35PM 34.5050 -82.7078 69° East 259 298 17,500  Level Atlanta Center
12:36PM 34.5353 -82.6292 65° Northeast 259 298 17,500  Level Atlanta Center
12:37PM 34.5636 -82.5406 69° East 254 292 17,500  Level Atlanta Center
12:38PM 34.5958 -82.4592 64° Northeast 254 292 17,500  Level Atlanta Center
12:39PM 34.6242 -82.3803 66° East 254 292 17,500  Level Atlanta Center
12:40PM 34.6544 -82.2989 66° East 254 292 17,500  Level Atlanta Center
12:41PM 34.6844 -82.2175 66° East 254 292 17,500  Level Atlanta Center
12:42PM 34.7167 -82.1333 65° Northeast 254 292 17,500  Level Atlanta Center
12:43PM 34.7444 -82.0519 67° East 260 299 17,500  Level Atlanta Center
12:44PM 34.7744 -81.9753 65° Northeast 255 293 17,500  Level Atlanta Center
12:45PM 34.8044 -81.8936 66° East 255 293 17,500  Level Atlanta Center
12:46PM 34.8342 -81.8094 67° East 255 293 17,500  Level Atlanta Center
12:47PM 34.8642 -81.7300 65° Northeast 255 293 17,500  Level Atlanta Center
12:48PM 34.8939 -81.6508 65° Northeast 255 293 17,500  Level Atlanta Center
12:49PM 34.9233 -81.5664 67° East 260 299 17,500  Level Atlanta Center
12:50PM 34.9492 -81.4919 67° East 260 299 17,500  Level Atlanta Center
12:51PM 34.9767 -81.4100 68° East 260 299 17,500  Level Atlanta Center
12:52PM 35.0061 -81.3281 66° East 254 292 17,500  Level Atlanta Center
12:53PM 35.0356 -81.2458 66° East 254 292 17,500  Level Atlanta Center
12:54PM 35.0650 -81.1636 66° East 254 292 17,500  Level Atlanta Center
12:55PM 35.0944 -81.0839 66° East 254 292 17,500  Level Atlanta Center
12:56PM 35.1214 -80.9992 69° East 254 292 17,500  Level Atlanta Center
12:57PM 35.1508 -80.9169 66° East 254 292 17,500  Level Atlanta Center
12:58PM 35.1800 -80.8369 66° East 254 292 17,500  Level Atlanta Center
12:59PM 35.2131 -80.7467 66° East 254 292 17,500  Level Atlanta Center
01:00PM 35.2419 -80.6617 67° East 254 292 17,500  Level Atlanta Center
01:01PM 35.2689 -80.5817 68° East 254 292 17,500  Level Atlanta Center
01:02PM 35.2981 -80.4992 67° East 254 292 17,500  Level Atlanta Center
01:03PM 35.3267 -80.4139 68° East 254 292 17,500  Level Atlanta Center
01:04PM 35.3578 -80.3308 65° Northeast 254 292 17,500  Level Atlanta Center
01:05PM 35.3864 -80.2481 67° East 254 292 17,500 -300 Level Atlanta Center
01:06PM 35.4150 -80.1603 68° East 259 298 17,000 -540 Descending Atlanta Center
01:07PM 35.4456 -80.0747 66° East 265 305 16,500 -540 Descending Atlanta Center
01:07PM 35.4603 -80.0292 68° East 266 306 16,200 -540 Descending Washington Center
01:08PM 35.4931 -79.9339 67° East 259 298 15,700 -540 Descending Washington Center
01:09PM 35.5231 -79.8539 65° Northeast 272 313 15,200 -540 Descending Washington Center
01:10PM 35.5533 -79.7611 68° East 272 313 14,700 -540 Descending Washington Center
01:12PM 35.5858 -79.6683 67° East 272 313 14,200 -480 Descending Washington Center
01:12PM 35.5953 -79.6331 72° East 277 319 14,000 -540 Descending Washington Center
01:12PM 35.6114 -79.5931 64° Northeast 265 305 13,700 -540 Descending Washington Center
01:13PM 35.6417 -79.4975 69° East 271 312 13,200 -540 Descending Washington Center
01:14PM 35.6486 -79.4747 69° East 275 316 13,000 -660 Descending Washington Center
01:15PM 35.6764 -79.3942 67° East 277 319 12,400 -780 Descending Washington Center
01:16PM 35.7017 -79.3186 68° East 271 312 11,700 -900 Descending Washington Center
01:16PM 35.7022 -79.2958 88° East 284 327 11,400 -900 Descending Washington Center
01:17PM 35.6981 -79.2342 95° East 271 312 10,800 -1,020 Descending Washington Center
01:17PM 35.6928 -79.1956 100° East 295 339 10,400 -1,140 Descending Washington Center
01:17PM 35.6886 -79.1264 94° East 276 318 9,700 -1,140 Descending Washington Center
01:18PM 35.6853 -79.0956 98° East 286 329 9,300 -1,080 Descending Washington Center
01:19PM 35.6778 -79.0006 96° East 280 322 8,300 -960 Descending Washington Center
01:19PM 35.6833 -78.9497 82° East 270 311 7,700 -1,140 Descending Washington Center
01:20PM 35.6886 -78.9114 80° East 251 289 7,200 -1,020 Descending Washington Center
01:21PM 35.7022 -78.8686 69° East 254 292 6,700 -900 Descending Washington Center
01:21PM 35.7075 -78.8303 80° East 249 287 6,300 -1,080 Descending Washington Center
01:21PM 35.7214 -78.7822 70° East 254 292 5,700 -1,200 Descending Washington Center
01:22PM 35.7344 -78.7547 60° Northeast 240 276 5,100 -1,680 Descending Washington Center
01:23PM 35.7797 -78.7078 40° Northeast 188 216 3,400 -1,560 Descending Washington Center
01:24PM 35.8250 -78.7275 341° North 160 184 1,900 -1,080 Descending Washington Center
01:25PM 35.8472 -78.7542 316° Northwest 96 110 1,200 -720 Descending Washington Center
01:27PM 35.8667 -78.7833 34° Northeast  Level FlightAware Approximate
01:34PM 35.8776 -78.7875 34° Northeast  Level Estimated
01:35PM 35.8776 -78.7875 34° Northeast  Level Estimated